createdAt,value
2022-11-03T00:00:41.451Z,9.457276
2022-11-03T00:01:41.573Z,9.457338
2022-11-03T00:02:41.473Z,9.457240
2022-11-03T00:03:41.449Z,9.457259
2022-11-03T00:04:41.398Z,9.457315
2022-11-03T00:05:41.394Z,9.457372
2022-11-03T00:06:41.390Z,9.457386
2022-11-03T00:07:41.384Z,9.457253
2022-11-03T00:08:41.381Z,9.457283
2022-11-03T00:09:41.356Z,9.457323
2022-11-03T00:10:41.351Z,9.457469
2022-11-03T00:11:41.346Z,9.457250
2022-11-03T00:12:41.332Z,9.457175
2022-11-03T00:13:41.329Z,9.456914
2022-11-03T00:14:41.303Z,9.456665
2022-11-03T00:15:41.296Z,9.456704
2022-11-03T00:16:41.273Z,9.457026
2022-11-03T00:17:41.271Z,9.457399
2022-11-03T00:18:41.276Z,9.457412
2022-11-03T00:19:41.255Z,9.457242
2022-11-03T00:20:41.235Z,9.457160
2022-11-03T00:21:41.225Z,9.457212
2022-11-03T00:22:41.215Z,9.457244
2022-11-03T00:23:41.225Z,9.457323
2022-11-03T00:24:41.185Z,9.457243
2022-11-03T00:25:41.179Z,9.457076
2022-11-03T00:26:41.170Z,9.457150
2022-11-03T00:27:41.164Z,9.456988
2022-11-03T00:28:41.158Z,9.456937
2022-11-03T00:29:41.135Z,9.456968
2022-11-03T00:30:41.133Z,9.456988
2022-11-03T00:31:41.104Z,9.457141
2022-11-03T00:32:42.100Z,9.457227
2022-11-03T00:33:41.116Z,9.457190
2022-11-03T00:34:41.089Z,9.457152
2022-11-03T00:35:41.069Z,9.457181
2022-11-03T00:36:41.060Z,9.457066
2022-11-03T00:37:41.051Z,9.457188
2022-11-03T00:38:41.057Z,9.457277
2022-11-03T00:39:41.032Z,9.457170
2022-11-03T00:40:41.022Z,9.457213
2022-11-03T00:41:40.999Z,9.457261
2022-11-03T00:42:40.997Z,9.457270
2022-11-03T00:43:41.005Z,9.457197
2022-11-03T00:44:40.983Z,9.457151
2022-11-03T00:45:40.959Z,9.457299
2022-11-03T00:46:40.953Z,9.457255
2022-11-03T00:47:40.964Z,9.457228
2022-11-03T00:48:40.950Z,9.457196
2022-11-03T00:49:40.915Z,9.457229
2022-11-03T00:50:40.904Z,9.457202
2022-11-03T00:51:40.902Z,9.457182
2022-11-03T00:52:40.892Z,9.457202
2022-11-03T00:53:40.894Z,9.457272
2022-11-03T00:54:44.811Z,9.457273
2022-11-03T00:55:40.856Z,9.457276
2022-11-03T00:56:40.846Z,9.457224
2022-11-03T00:57:40.831Z,9.457195
2022-11-03T00:58:40.839Z,9.457267
2022-11-03T00:59:40.807Z,9.457305
2022-11-03T01:00:40.800Z,9.457206
2022-11-03T01:01:45.168Z,9.457236
2022-11-03T01:02:40.819Z,9.457275
2022-11-03T01:03:40.788Z,9.457224
2022-11-03T01:04:40.753Z,9.457250
2022-11-03T01:05:40.732Z,9.457413
2022-11-03T01:06:40.733Z,9.457310
2022-11-03T01:07:40.721Z,9.457324
2022-11-03T01:08:40.735Z,9.457376
2022-11-03T01:09:40.694Z,9.457296
2022-11-03T01:10:40.684Z,9.457322
2022-11-03T01:11:40.674Z,9.457287
2022-11-03T01:12:40.664Z,9.457272
2022-11-03T01:13:41.690Z,9.457230
2022-11-03T01:14:40.645Z,9.457242
2022-11-03T01:15:40.631Z,9.457203
2022-11-03T01:16:40.616Z,9.457345
2022-11-03T01:17:40.599Z,9.457334
2022-11-03T01:18:40.615Z,9.457262
2022-11-03T01:19:40.589Z,9.457274
2022-11-03T01:20:40.574Z,9.457294
2022-11-03T01:21:40.567Z,9.457234
2022-11-03T01:22:40.589Z,9.457219
2022-11-03T01:23:41.554Z,9.457099
2022-11-03T01:24:40.533Z,9.457076
2022-11-03T01:25:40.523Z,9.456936
2022-11-03T01:26:40.507Z,9.456983
2022-11-03T01:27:40.497Z,9.457074
2022-11-03T01:28:40.503Z,9.457007
2022-11-03T01:29:40.479Z,9.457020
2022-11-03T01:30:40.459Z,9.457258
2022-11-03T01:31:40.455Z,9.457236
2022-11-03T01:32:40.443Z,9.457228
2022-11-03T01:33:40.443Z,9.457340
2022-11-03T01:34:40.420Z,9.457281
2022-11-03T01:35:40.411Z,9.457199
2022-11-03T01:36:40.397Z,9.457328
2022-11-03T01:37:40.394Z,9.457263
2022-11-03T01:38:40.397Z,9.457244
2022-11-03T01:39:40.367Z,9.457216
2022-11-03T01:40:40.357Z,9.457234
2022-11-03T01:41:40.347Z,9.457250
2022-11-03T01:42:40.339Z,9.457269
2022-11-03T01:43:40.341Z,9.457230
2022-11-03T01:44:40.315Z,9.457166
2022-11-03T01:45:40.291Z,9.457214
2022-11-03T01:46:40.288Z,9.457131
2022-11-03T01:47:40.286Z,9.457047
2022-11-03T01:48:40.290Z,9.457048
2022-11-03T01:49:40.262Z,9.456893
2022-11-03T01:50:40.253Z,9.456850
2022-11-03T01:51:40.244Z,9.456789
2022-11-03T01:52:40.225Z,9.456769
2022-11-03T01:53:40.237Z,9.457001
2022-11-03T01:54:40.213Z,9.456867
2022-11-03T01:55:40.201Z,9.457050
2022-11-03T01:56:40.199Z,9.457171
2022-11-03T01:57:40.170Z,9.457118
2022-11-03T01:58:40.172Z,9.457053
2022-11-03T01:59:40.155Z,9.457204
2022-11-03T02:00:40.134Z,9.457063
2022-11-03T02:01:40.251Z,9.457056
2022-11-03T02:02:40.120Z,9.457081
2022-11-03T02:03:40.124Z,9.457191
2022-11-03T02:04:40.096Z,9.457242
2022-11-03T02:05:40.091Z,9.457274
2022-11-03T02:06:40.076Z,9.457274
2022-11-03T02:07:40.068Z,9.457339
2022-11-03T02:08:40.087Z,9.457200
2022-11-03T02:09:40.038Z,9.457242
2022-11-03T02:10:40.038Z,9.457211
2022-11-03T02:11:40.028Z,9.457211
2022-11-03T02:12:40.004Z,9.457240
2022-11-03T02:13:40.016Z,9.457258
2022-11-03T02:14:39.985Z,9.457301
2022-11-03T02:15:39.980Z,9.457303
2022-11-03T02:16:42.603Z,9.457264
2022-11-03T02:17:40.964Z,9.457290
2022-11-03T02:18:39.968Z,9.457286
2022-11-03T02:19:39.971Z,9.457247
2022-11-03T02:20:39.921Z,9.457205
2022-11-03T02:21:39.912Z,9.457285
2022-11-03T02:22:39.906Z,9.457242
2022-11-03T02:23:39.915Z,9.457303
2022-11-03T02:24:39.871Z,9.457294
2022-11-03T02:25:39.874Z,9.457191
2022-11-03T02:26:39.854Z,9.457249
2022-11-03T02:27:40.847Z,9.457292
2022-11-03T02:28:39.894Z,9.457189
2022-11-03T02:29:39.832Z,9.457238
2022-11-03T02:30:39.824Z,9.457181
2022-11-03T02:31:39.811Z,9.457296
2022-11-03T02:32:39.800Z,9.457299
2022-11-03T02:33:39.807Z,9.457268
2022-11-03T02:34:39.775Z,9.457296
2022-11-03T02:35:39.766Z,9.457311
2022-11-03T02:36:39.742Z,9.457141
2022-11-03T02:37:39.740Z,9.457238
2022-11-03T02:38:39.747Z,9.457161
2022-11-03T02:39:39.721Z,9.457207
2022-11-03T02:40:39.708Z,9.457282
2022-11-03T02:41:39.698Z,9.457248
2022-11-03T02:42:39.685Z,9.457029
2022-11-03T02:43:39.694Z,9.457076
2022-11-03T02:44:39.667Z,9.457114
2022-11-03T02:45:39.655Z,9.457107
2022-11-03T02:46:40.650Z,9.457300
2022-11-03T02:47:39.633Z,9.457238
2022-11-03T02:48:39.644Z,9.457398
2022-11-03T02:49:39.611Z,9.457195
2022-11-03T02:50:39.600Z,9.457254
2022-11-03T02:51:39.589Z,9.457198
2022-11-03T02:52:39.578Z,9.457190
2022-11-03T02:53:39.592Z,9.457220
2022-11-03T02:54:39.560Z,9.457282
2022-11-03T02:55:39.553Z,9.457349
2022-11-03T02:56:39.540Z,9.457348
2022-11-03T02:57:39.540Z,9.457300
2022-11-03T02:58:39.540Z,9.457225
2022-11-03T02:59:39.506Z,9.457150
2022-11-03T03:00:39.506Z,9.457206
2022-11-03T03:01:39.709Z,9.457183
2022-11-03T03:02:39.481Z,9.457205
2022-11-03T03:03:39.489Z,9.457318
2022-11-03T03:04:39.480Z,9.457312
2022-11-03T03:05:39.446Z,9.457258
2022-11-03T03:06:39.440Z,9.457228
2022-11-03T03:07:39.432Z,9.457143
2022-11-03T03:08:39.457Z,9.457273
2022-11-03T03:09:39.400Z,9.457239
2022-11-03T03:10:39.399Z,9.457067
2022-11-03T03:11:39.695Z,9.457179
2022-11-03T03:12:39.378Z,9.457248
2022-11-03T03:13:39.385Z,9.457304
2022-11-03T03:14:39.359Z,9.457126
2022-11-03T03:15:39.351Z,9.457248
2022-11-03T03:16:39.334Z,9.457337
2022-11-03T03:17:39.327Z,9.457364
2022-11-03T03:18:39.329Z,9.457384
2022-11-03T03:19:39.309Z,9.457233
2022-11-03T03:20:39.297Z,9.457193
2022-11-03T03:21:39.286Z,9.457170
2022-11-03T03:22:39.282Z,9.457288
2022-11-03T03:23:39.291Z,9.457260
2022-11-03T03:24:39.250Z,9.457183
2022-11-03T03:25:39.246Z,9.457171
2022-11-03T03:26:39.242Z,9.457134
2022-11-03T03:27:39.227Z,9.457244
2022-11-03T03:28:39.230Z,9.457269
2022-11-03T03:29:39.204Z,9.457211
2022-11-03T03:30:39.201Z,9.457217
2022-11-03T03:31:39.189Z,9.457215
2022-11-03T03:32:39.169Z,9.457134
2022-11-03T03:33:41.945Z,9.457141
2022-11-03T03:34:40.191Z,9.457191
2022-11-03T03:35:39.147Z,9.457168
2022-11-03T03:36:39.143Z,9.457172
2022-11-03T03:37:39.130Z,9.457237
2022-11-03T03:38:39.123Z,9.457184
2022-11-03T03:39:39.131Z,9.457199
2022-11-03T03:40:39.101Z,9.457246
2022-11-03T03:41:39.087Z,9.457274
2022-11-03T03:42:39.079Z,9.457364
2022-11-03T03:43:39.060Z,9.457227
2022-11-03T03:44:39.075Z,9.457171
2022-11-03T03:45:39.041Z,9.457207
2022-11-03T03:46:39.032Z,9.457201
2022-11-03T03:47:39.027Z,9.457094
2022-11-03T03:48:39.011Z,9.457227
2022-11-03T03:49:39.023Z,9.457153
2022-11-03T03:50:38.982Z,9.457222
2022-11-03T03:51:39.978Z,9.457193
2022-11-03T03:52:38.972Z,9.457305
2022-11-03T03:53:38.970Z,9.457392
2022-11-03T03:54:38.971Z,9.457235
2022-11-03T03:55:38.949Z,9.457337
2022-11-03T03:56:38.938Z,9.457375
2022-11-03T03:57:38.924Z,9.457356
2022-11-03T03:58:38.907Z,9.457256
2022-11-03T03:59:38.920Z,9.457157
2022-11-03T04:00:38.883Z,9.457132
2022-11-03T04:01:39.010Z,9.457104
2022-11-03T04:02:38.938Z,9.457107
2022-11-03T04:03:38.864Z,9.457127
2022-11-03T04:04:38.870Z,9.457252
2022-11-03T04:05:38.839Z,9.457095
2022-11-03T04:06:38.823Z,9.457021
2022-11-03T04:07:42.628Z,9.457046
2022-11-03T04:08:39.794Z,9.457104
2022-11-03T04:09:38.800Z,9.457062
2022-11-03T04:10:38.787Z,9.457114
2022-11-03T04:11:38.772Z,9.457055
2022-11-03T04:12:38.763Z,9.457053
2022-11-03T04:13:38.749Z,9.457172
2022-11-03T04:14:38.763Z,9.457329
2022-11-03T04:15:38.729Z,9.457213
2022-11-03T04:16:38.724Z,9.457095
2022-11-03T04:17:38.802Z,9.457119
2022-11-03T04:18:38.704Z,9.457220
2022-11-03T04:19:38.715Z,9.457206
2022-11-03T04:20:38.672Z,9.457298
2022-11-03T04:21:38.668Z,9.457026
2022-11-03T04:22:38.658Z,9.457064
2022-11-03T04:23:38.646Z,9.457179
2022-11-03T04:24:38.654Z,9.457267
2022-11-03T04:25:38.631Z,9.457271
2022-11-03T04:26:38.620Z,9.457169
2022-11-03T04:27:38.608Z,9.457104
2022-11-03T04:28:38.593Z,9.457141
2022-11-03T04:29:38.599Z,9.457088
2022-11-03T04:30:38.574Z,9.457253
2022-11-03T04:31:38.570Z,9.457100
2022-11-03T04:32:38.555Z,9.457186
2022-11-03T04:33:38.557Z,9.457144
2022-11-03T04:34:38.548Z,9.457086
2022-11-03T04:35:38.519Z,9.457113
2022-11-03T04:36:38.503Z,9.457194
2022-11-03T04:37:38.505Z,9.457270
2022-11-03T04:38:38.487Z,9.457370
2022-11-03T04:39:38.564Z,9.457274
2022-11-03T04:40:38.471Z,9.457298
2022-11-03T04:41:38.468Z,9.457303
2022-11-03T04:42:38.454Z,9.457224
2022-11-03T04:43:38.445Z,9.457232
2022-11-03T04:44:38.453Z,9.457174
2022-11-03T04:45:38.422Z,9.457190
2022-11-03T04:46:38.419Z,9.457294
2022-11-03T04:47:38.402Z,9.457273
2022-11-03T04:48:38.388Z,9.457239
2022-11-03T04:49:38.401Z,9.457222
2022-11-03T04:50:41.699Z,9.457201
2022-11-03T04:51:39.362Z,9.457165
2022-11-03T04:52:38.347Z,9.457288
2022-11-03T04:53:38.339Z,9.457336
2022-11-03T04:54:38.352Z,9.457427
2022-11-03T04:55:38.323Z,9.457261
2022-11-03T04:56:38.300Z,9.457264
2022-11-03T04:57:38.289Z,9.457288
2022-11-03T04:58:38.290Z,9.457209
2022-11-03T04:59:38.303Z,9.457242
2022-11-03T05:00:38.263Z,9.457219
2022-11-03T05:01:38.374Z,9.457312
2022-11-03T05:02:38.246Z,9.457302
2022-11-03T05:03:38.237Z,9.457349
2022-11-03T05:04:38.276Z,9.457253
2022-11-03T05:05:38.207Z,9.457202
2022-11-03T05:06:38.207Z,9.457179
2022-11-03T05:07:38.188Z,9.457160
2022-11-03T05:08:38.179Z,9.457135
2022-11-03T05:09:42.667Z,9.457096
2022-11-03T05:10:38.174Z,9.457275
2022-11-03T05:11:38.151Z,9.457236
2022-11-03T05:12:38.139Z,9.457289
2022-11-03T05:13:38.131Z,9.457327
2022-11-03T05:14:38.133Z,9.457191
2022-11-03T05:15:38.120Z,9.457265
2022-11-03T05:16:38.088Z,9.457267
2022-11-03T05:17:38.083Z,9.457229
2022-11-03T05:18:38.083Z,9.457193
2022-11-03T05:19:38.088Z,9.457156
2022-11-03T05:20:38.051Z,9.457092
2022-11-03T05:21:39.043Z,9.457124
2022-11-03T05:22:38.029Z,9.457155
2022-11-03T05:23:38.026Z,9.457287
2022-11-03T05:24:38.022Z,9.457402
2022-11-03T05:25:38.002Z,9.457219
2022-11-03T05:26:37.989Z,9.457281
2022-11-03T05:27:37.989Z,9.457373
2022-11-03T05:28:37.968Z,9.457195
2022-11-03T05:29:37.990Z,9.457220
2022-11-03T05:30:37.961Z,9.457227
2022-11-03T05:31:37.953Z,9.457277
2022-11-03T05:32:37.934Z,9.457086
2022-11-03T05:33:37.929Z,9.457056
2022-11-03T05:34:37.942Z,9.457197
2022-11-03T05:35:37.900Z,9.457411
2022-11-03T05:36:37.882Z,9.457435
2022-11-03T05:37:37.878Z,9.457286
2022-11-03T05:38:38.884Z,9.457159
2022-11-03T05:39:37.882Z,9.457189
2022-11-03T05:40:37.853Z,9.457253
2022-11-03T05:41:37.844Z,9.457163
2022-11-03T05:42:37.830Z,9.457236
2022-11-03T05:43:37.822Z,9.457161
2022-11-03T05:44:37.828Z,9.457120
2022-11-03T05:45:37.801Z,9.457237
2022-11-03T05:46:37.804Z,9.457163
2022-11-03T05:47:56.237Z,9.457102
2022-11-03T05:48:37.772Z,9.457088
2022-11-03T05:49:37.783Z,9.457134
2022-11-03T05:50:37.757Z,9.457166
2022-11-03T05:51:37.743Z,9.457181
2022-11-03T05:52:37.723Z,9.457301
2022-11-03T05:53:37.714Z,9.457175
2022-11-03T05:54:37.729Z,9.457298
2022-11-03T05:55:37.694Z,9.457175
2022-11-03T05:56:37.686Z,9.457158
2022-11-03T05:57:37.682Z,9.457108
2022-11-03T05:58:37.713Z,9.457207
2022-11-03T05:59:37.681Z,9.457216
2022-11-03T06:00:37.662Z,9.457187
2022-11-03T06:01:37.697Z,9.457340
2022-11-03T06:02:37.662Z,9.457241
2022-11-03T06:03:37.609Z,9.457236
2022-11-03T06:04:37.627Z,9.457226
2022-11-03T06:05:37.596Z,9.457181
2022-11-03T06:06:37.582Z,9.457047
2022-11-03T06:07:38.574Z,9.457117
2022-11-03T06:08:40.191Z,9.457215
2022-11-03T06:09:38.580Z,9.457108
2022-11-03T06:10:37.539Z,9.457203
2022-11-03T06:11:37.558Z,9.457169
2022-11-03T06:12:37.527Z,9.457182
2022-11-03T06:13:37.504Z,9.457035
2022-11-03T06:14:37.500Z,9.457233
2022-11-03T06:15:37.514Z,9.457055
2022-11-03T06:16:37.492Z,9.457069
2022-11-03T06:17:37.478Z,9.457026
2022-11-03T06:18:37.458Z,9.456932
2022-11-03T06:19:37.446Z,9.456643
2022-11-03T06:20:37.448Z,9.456909
2022-11-03T06:21:41.821Z,9.456910
2022-11-03T06:22:39.451Z,9.456978
2022-11-03T06:23:37.413Z,9.457109
2022-11-03T06:24:37.393Z,9.457013
2022-11-03T06:25:37.406Z,9.457195
2022-11-03T06:26:37.382Z,9.457140
2022-11-03T06:27:37.358Z,9.457174
2022-11-03T06:28:38.357Z,9.456901
2022-11-03T06:29:37.349Z,9.456769
2022-11-03T06:30:37.367Z,9.456825
2022-11-03T06:31:37.319Z,9.457018
2022-11-03T06:32:37.304Z,9.457164
2022-11-03T06:33:37.298Z,9.457067
2022-11-03T06:34:37.291Z,9.457065
2022-11-03T06:35:37.337Z,9.457076
2022-11-03T06:36:37.271Z,9.457115
2022-11-03T06:37:37.257Z,9.457213
2022-11-03T06:38:37.253Z,9.457244
2022-11-03T06:39:37.242Z,9.457296
2022-11-03T06:40:37.249Z,9.457167
2022-11-03T06:41:37.215Z,9.457120
2022-11-03T06:42:37.227Z,9.457247
2022-11-03T06:43:37.199Z,9.457211
2022-11-03T06:44:37.185Z,9.457216
2022-11-03T06:45:37.188Z,9.457230
2022-11-03T06:46:37.162Z,9.457227
2022-11-03T06:47:37.154Z,9.457283
2022-11-03T06:48:37.142Z,9.457395
2022-11-03T06:49:37.138Z,9.457153
2022-11-03T06:50:40.901Z,9.457142
2022-11-03T06:51:38.109Z,9.457080
2022-11-03T06:52:37.175Z,9.457242
2022-11-03T06:53:37.123Z,9.457245
2022-11-03T06:54:37.081Z,9.457118
2022-11-03T06:55:37.087Z,9.457214
2022-11-03T06:56:37.048Z,9.457317
2022-11-03T06:57:37.045Z,9.457210
2022-11-03T06:58:37.032Z,9.457127
2022-11-03T06:59:37.030Z,9.457091
2022-11-03T07:00:39.897Z,9.457285
2022-11-03T07:01:38.095Z,9.457290
2022-11-03T07:02:37.067Z,9.457293
2022-11-03T07:03:36.984Z,9.457253
2022-11-03T07:04:36.975Z,9.457198
2022-11-03T07:05:36.985Z,9.457207
2022-11-03T07:06:36.958Z,9.457210
2022-11-03T07:07:36.946Z,9.457285
2022-11-03T07:08:36.936Z,9.457191
2022-11-03T07:09:36.935Z,9.457299
2022-11-03T07:10:36.958Z,9.457183
2022-11-03T07:11:36.909Z,9.457260
2022-11-03T07:12:36.896Z,9.457256
2022-11-03T07:13:36.894Z,9.457309
2022-11-03T07:14:36.872Z,9.457171
2022-11-03T07:15:36.879Z,9.457167
2022-11-03T07:16:36.854Z,9.457158
2022-11-03T07:17:36.845Z,9.457397
2022-11-03T07:18:36.832Z,9.457302
2022-11-03T07:19:36.822Z,9.457306
2022-11-03T07:20:36.825Z,9.457232
2022-11-03T07:21:36.800Z,9.457202
2022-11-03T07:22:36.793Z,9.457285
2022-11-03T07:23:36.781Z,9.457414
2022-11-03T07:24:36.788Z,9.457266
2022-11-03T07:25:36.752Z,9.457287
2022-11-03T07:26:36.754Z,9.457295
2022-11-03T07:27:36.738Z,9.457376
2022-11-03T07:28:36.735Z,9.457200
2022-11-03T07:29:36.739Z,9.457243
2022-11-03T07:30:36.721Z,9.457279
2022-11-03T07:31:36.701Z,9.457324
2022-11-03T07:32:36.712Z,9.457284
2022-11-03T07:33:36.693Z,9.457306
2022-11-03T07:34:36.669Z,9.457380
2022-11-03T07:36:00.421Z,9.457264
2022-11-03T07:36:38.650Z,9.457211
2022-11-03T07:37:36.639Z,9.457333
2022-11-03T07:38:36.640Z,9.457185
2022-11-03T07:39:36.629Z,9.457337
2022-11-03T07:40:36.630Z,9.457296
2022-11-03T07:41:36.603Z,9.457425
2022-11-03T07:42:36.595Z,9.457298
2022-11-03T07:43:36.581Z,9.457412
2022-11-03T07:44:36.572Z,9.457287
2022-11-03T07:45:36.574Z,9.457232
2022-11-03T07:46:36.557Z,9.457269
2022-11-03T07:47:36.550Z,9.457413
2022-11-03T07:48:36.536Z,9.457287
2022-11-03T07:49:36.537Z,9.457267
2022-11-03T07:50:36.538Z,9.457256
2022-11-03T07:51:36.501Z,9.457256
2022-11-03T07:52:36.498Z,9.457214
2022-11-03T07:53:36.491Z,9.457295
2022-11-03T07:54:36.479Z,9.457283
2022-11-03T07:55:36.484Z,9.457273
2022-11-03T07:56:36.613Z,9.457328
2022-11-03T07:57:36.466Z,9.457333
2022-11-03T07:58:36.441Z,9.457440
2022-11-03T07:59:36.425Z,9.457258
2022-11-03T08:00:36.432Z,9.457297
2022-11-03T08:01:36.576Z,9.457327
2022-11-03T08:02:36.437Z,9.457465
2022-11-03T08:03:36.373Z,9.457335
2022-11-03T08:04:36.380Z,9.457431
2022-11-03T08:05:36.390Z,9.457517
2022-11-03T08:06:36.365Z,9.457506
2022-11-03T08:07:36.340Z,9.457399
2022-11-03T08:08:36.338Z,9.457335
2022-11-03T08:09:36.336Z,9.457111
2022-11-03T08:10:36.341Z,9.457191
2022-11-03T08:11:36.305Z,9.457223
2022-11-03T08:12:36.296Z,9.457392
2022-11-03T08:13:36.288Z,9.457475
2022-11-03T08:14:36.289Z,9.457355
2022-11-03T08:15:36.301Z,9.457326
2022-11-03T08:16:36.259Z,9.457279
2022-11-03T08:17:36.253Z,9.457488
2022-11-03T08:18:36.261Z,9.457396
2022-11-03T08:19:36.224Z,9.457476
2022-11-03T08:20:36.236Z,9.457170
2022-11-03T08:21:36.214Z,9.457109
2022-11-03T08:22:36.204Z,9.457215
2022-11-03T08:23:36.183Z,9.457417
2022-11-03T08:24:36.186Z,9.457304
2022-11-03T08:25:36.195Z,9.457244
2022-11-03T08:26:36.170Z,9.457129
2022-11-03T08:27:36.153Z,9.457221
2022-11-03T08:28:36.147Z,9.457227
2022-11-03T08:29:36.132Z,9.457234
2022-11-03T08:30:36.142Z,9.457287
2022-11-03T08:31:36.127Z,9.457323
2022-11-03T08:32:36.103Z,9.457391
2022-11-03T08:33:36.094Z,9.457211
2022-11-03T08:34:36.089Z,9.457421
2022-11-03T08:35:36.092Z,9.457339
2022-11-03T08:36:36.069Z,9.457222
2022-11-03T08:37:36.061Z,9.457184
2022-11-03T08:38:36.109Z,9.457273
2022-11-03T08:39:36.035Z,9.457252
2022-11-03T08:40:36.048Z,9.457184
2022-11-03T08:41:36.020Z,9.457335
2022-11-03T08:42:36.011Z,9.457258
2022-11-03T08:43:36.034Z,9.457232
2022-11-03T08:44:35.990Z,9.457265
2022-11-03T08:45:35.987Z,9.457301
2022-11-03T08:46:35.961Z,9.457335
2022-11-03T08:47:35.966Z,9.457234
2022-11-03T08:48:35.950Z,9.457287
2022-11-03T08:49:35.939Z,9.457235
2022-11-03T08:50:35.954Z,9.457202
2022-11-03T08:51:40.092Z,9.457263
2022-11-03T08:52:36.913Z,9.457341
2022-11-03T08:53:35.900Z,9.457327
2022-11-03T08:54:35.893Z,9.457229
2022-11-03T08:55:35.898Z,9.457244
2022-11-03T08:56:35.871Z,9.457304
2022-11-03T08:57:35.862Z,9.457249
2022-11-03T08:58:35.852Z,9.457254
2022-11-03T08:59:35.842Z,9.457288
2022-11-03T09:00:40.522Z,9.457273
2022-11-03T09:01:37.844Z,9.457285
2022-11-03T09:02:35.836Z,9.457265
2022-11-03T09:03:35.884Z,9.457313
2022-11-03T09:04:35.790Z,9.457271
2022-11-03T09:05:35.806Z,9.457147
2022-11-03T09:06:35.767Z,9.457275
2022-11-03T09:10:42.212Z,9.457375
2022-11-03T09:11:36.715Z,9.457246
2022-11-03T09:12:35.712Z,9.457177
2022-11-03T09:13:35.705Z,9.457304
2022-11-03T09:14:35.692Z,9.457109
2022-11-03T09:15:35.685Z,9.457245
2022-11-03T09:16:35.670Z,9.457314
2022-11-03T09:17:35.660Z,9.457303
2022-11-03T09:18:35.644Z,9.457272
2022-11-03T09:19:35.660Z,9.457259
2022-11-03T09:20:35.646Z,9.457128
2022-11-03T09:21:35.615Z,9.457591
2022-11-03T09:22:35.606Z,9.457858
2022-11-03T09:23:35.603Z,9.458136
2022-11-03T09:24:35.592Z,9.457791
2022-11-03T09:25:35.599Z,9.457734
2022-11-03T09:26:35.564Z,9.457709
2022-11-03T09:27:35.555Z,9.457396
2022-11-03T09:28:35.537Z,9.457870
2022-11-03T09:29:58.359Z,9.457982
2022-11-03T09:30:37.539Z,9.458041
2022-11-03T09:31:35.520Z,9.458419
2022-11-03T09:32:35.506Z,9.458246
2022-11-03T09:33:35.495Z,9.458165
2022-11-03T09:34:35.487Z,9.457858
2022-11-03T09:35:35.504Z,9.458092
2022-11-03T09:36:35.464Z,9.457310
2022-11-03T09:37:35.465Z,9.457243
2022-11-03T09:38:35.461Z,9.457196
2022-11-03T09:39:35.429Z,9.457199
2022-11-03T09:40:35.502Z,9.457314
2022-11-03T09:41:55.764Z,9.457237
2022-11-03T09:42:37.418Z,9.457229
2022-11-03T09:43:35.396Z,9.457227
2022-11-03T09:44:35.385Z,9.457250
2022-11-03T09:45:36.404Z,9.457273
2022-11-03T09:46:35.403Z,9.457149
2022-11-03T09:47:35.359Z,9.457211
2022-11-03T09:48:35.352Z,9.457239
2022-11-03T09:49:35.336Z,9.457330
2022-11-03T09:50:35.348Z,9.457353
2022-11-03T09:51:35.319Z,9.457325
2022-11-03T09:52:35.306Z,9.457253
2022-11-03T09:53:35.329Z,9.457394
2022-11-03T09:54:35.288Z,9.457140
2022-11-03T09:55:35.287Z,9.457213
2022-11-03T09:56:35.262Z,9.457247
2022-11-03T09:57:35.257Z,9.457288
2022-11-03T09:58:35.251Z,9.457131
2022-11-03T09:59:35.234Z,9.457170
2022-11-03T10:00:35.249Z,9.457067
2022-11-03T10:01:35.325Z,9.456969
2022-11-03T10:02:35.289Z,9.456948
2022-11-03T10:03:35.197Z,9.457086
2022-11-03T10:04:35.188Z,9.457120
2022-11-03T10:05:35.197Z,9.457197
2022-11-03T10:06:35.183Z,9.457075
2022-11-03T10:07:35.160Z,9.456971
2022-11-03T10:08:35.156Z,9.456953
2022-11-03T10:09:35.150Z,9.457273
2022-11-03T10:10:35.151Z,9.457246
2022-11-03T10:11:35.115Z,9.457224
2022-11-03T10:12:35.112Z,9.457248
2022-11-03T10:13:35.117Z,9.457181
2022-11-03T10:14:35.091Z,9.457107
2022-11-03T10:15:35.099Z,9.456891
2022-11-03T10:16:35.072Z,9.456828
2022-11-03T10:17:35.080Z,9.456863
2022-11-03T10:18:35.053Z,9.457052
2022-11-03T10:19:35.073Z,9.456994
2022-11-03T10:20:35.058Z,9.457086
2022-11-03T10:21:35.026Z,9.457189
2022-11-03T10:22:38.477Z,9.457350
2022-11-03T10:23:37.003Z,9.457508
2022-11-03T10:24:34.994Z,9.457503
2022-11-03T10:25:35.000Z,9.457194
2022-11-03T10:26:34.968Z,9.457099
2022-11-03T10:27:34.962Z,9.457173
2022-11-03T10:28:34.952Z,9.457302
2022-11-03T10:29:37.350Z,9.457374
2022-11-03T10:30:45.375Z,9.457236
2022-11-03T10:31:36.922Z,9.457097
2022-11-03T10:32:34.918Z,9.457128
2022-11-03T10:33:34.907Z,9.457125
2022-11-03T10:34:34.895Z,9.457083
2022-11-03T10:35:34.908Z,9.457052
2022-11-03T10:36:34.872Z,9.457135
2022-11-03T10:37:34.874Z,9.457024
2022-11-03T10:38:34.855Z,9.457117
2022-11-03T10:39:34.847Z,9.457127
2022-11-03T10:40:49.168Z,9.457006
2022-11-03T10:41:36.825Z,9.457088
2022-11-03T10:42:35.912Z,9.457136
2022-11-03T10:43:35.828Z,9.457183
2022-11-03T10:44:34.792Z,9.457176
2022-11-03T10:45:34.805Z,9.457129
2022-11-03T10:46:51.558Z,9.457211
2022-11-03T10:47:36.769Z,9.457132
2022-11-03T10:48:34.759Z,9.457155
2022-11-03T10:49:37.701Z,9.457097
2022-11-03T10:50:35.755Z,9.457041
2022-11-03T10:51:34.719Z,9.457186
2022-11-03T10:53:34.709Z,9.457122
2022-11-03T10:54:34.697Z,9.457324
2022-11-03T10:55:34.753Z,9.457207
2022-11-03T10:56:34.674Z,9.457321
2022-11-03T10:57:34.669Z,9.457331
2022-11-03T10:58:34.658Z,9.457240
2022-11-03T10:59:34.680Z,9.457198
2022-11-03T11:00:34.658Z,9.457109
2022-11-03T11:01:34.786Z,9.457149
2022-11-03T11:02:34.673Z,9.457186
2022-11-03T11:03:34.602Z,9.457248
2022-11-03T11:04:34.643Z,9.457235
2022-11-03T11:05:34.611Z,9.457267
2022-11-03T11:06:34.575Z,9.457221
2022-11-03T11:07:34.555Z,9.457224
2022-11-03T11:08:34.619Z,9.457267
2022-11-03T11:09:34.546Z,9.457101
2022-11-03T11:10:34.566Z,9.457061
2022-11-03T11:11:34.528Z,9.457173
2022-11-03T11:12:34.522Z,9.457236
2022-11-03T11:13:34.535Z,9.457209
2022-11-03T11:14:34.495Z,9.457222
2022-11-03T11:15:34.511Z,9.457155
2022-11-03T11:16:34.487Z,9.457177
2022-11-03T11:17:34.472Z,9.457272
2022-11-03T11:18:34.462Z,9.457279
2022-11-03T11:19:34.449Z,9.457243
2022-11-03T11:20:34.441Z,9.457237
2022-11-03T11:21:35.734Z,9.457245
2022-11-03T11:22:34.427Z,9.457253
2022-11-03T11:23:34.417Z,9.457214
2022-11-03T11:24:34.404Z,9.457231
2022-11-03T11:25:34.423Z,9.457092
2022-11-03T11:26:34.382Z,9.457307
2022-11-03T11:27:34.373Z,9.457242
2022-11-03T11:28:34.363Z,9.457210
2022-11-03T11:29:34.354Z,9.457187
2022-11-03T11:30:34.349Z,9.457195
2022-11-03T11:31:34.360Z,9.457293
2022-11-03T11:32:34.359Z,9.457253
2022-11-03T11:33:34.335Z,9.457266
2022-11-03T11:34:34.309Z,9.457282
2022-11-03T11:35:34.301Z,9.457262
2022-11-03T11:36:34.309Z,9.457274
2022-11-03T11:37:34.278Z,9.457289
2022-11-03T11:38:34.274Z,9.457232
2022-11-03T11:39:34.251Z,9.457216
2022-11-03T11:40:34.251Z,9.457273
2022-11-03T11:41:34.261Z,9.457254
2022-11-03T11:42:36.446Z,9.457306
2022-11-03T11:43:34.230Z,9.457252
2022-11-03T11:44:34.210Z,9.457329
2022-11-03T11:45:34.231Z,9.457308
2022-11-03T11:46:34.211Z,9.457251
2022-11-03T11:47:34.172Z,9.457265
2022-11-03T11:56:17.597Z,9.457170